Time;durP1;ratioP1;P1;durP2;ratioP2;P2;SDS_P1;SDS_P2;PMS_P1;PMS_P2;Temp;Humidity;BMP_temperature;BMP_pressure;BME280_temperature;BME280_humidity;BME280_pressure;Samples;Min_cycle;Max_cycle;Signal;HPM_P1;HPM_P2
2021/09/10 00:00:57;;;;;;;3.67;2.25;;;25.60;52.10;;;;;;5039916;28;20044;-58
2021/09/10 00:03:23;;;;;;;4.25;2.60;;;25.60;52.10;;;;;;5034066;28;20036;-49
2021/09/10 00:05:48;;;;;;;3.17;2.42;;;25.60;52.10;;;;;;5036910;28;20037;-59
2021/09/10 00:08:14;;;;;;;3.65;2.30;;;25.60;52.10;;;;;;5044045;28;20029;-59
2021/09/10 00:10:40;;;;;;;2.97;2.30;;;25.70;52.20;;;;;;5039274;28;20056;-61
2021/09/10 00:13:05;;;;;;;3.30;2.40;;;25.60;52.10;;;;;;5035554;28;20087;-56
2021/09/10 00:15:31;;;;;;;3.03;2.47;;;25.60;52.10;;;;;;5032098;28;20108;-59
2021/09/10 00:17:57;;;;;;;3.25;2.33;;;25.60;52.10;;;;;;5041398;28;20052;-58
2021/09/10 00:20:23;;;;;;;3.20;2.55;;;25.60;52.10;;;;;;5040020;28;20024;-53
2021/09/10 00:22:48;;;;;;;3.90;2.70;;;25.60;52.10;;;;;;5053836;28;20018;-58
2021/09/10 00:25:14;;;;;;;3.05;2.28;;;25.60;52.10;;;;;;5042059;28;20032;-51
2021/09/10 00:27:40;;;;;;;3.58;2.50;;;25.60;52.10;;;;;;5038870;28;20028;-58
2021/09/10 00:30:07;;;;;;;3.25;2.22;;;25.60;52.10;;;;;;5043585;28;20056;-56
2021/09/10 00:32:33;;;;;;;3.40;2.45;;;25.60;52.20;;;;;;5048614;28;20425;-51
2021/09/10 00:34:58;;;;;;;3.33;2.58;;;25.60;52.10;;;;;;5044658;28;20046;-60
2021/09/10 00:37:24;;;;;;;3.50;2.40;;;25.60;52.10;;;;;;5048797;28;20488;-55
2021/09/10 00:39:50;;;;;;;3.28;2.38;;;25.50;52.00;;;;;;5047160;28;20111;-56
2021/09/10 00:42:16;;;;;;;2.90;2.13;;;25.60;52.10;;;;;;5040769;28;20025;-54
2021/09/10 00:44:42;;;;;;;3.00;2.35;;;25.50;52.00;;;;;;5035984;28;20028;-58
2021/09/10 00:47:07;;;;;;;3.33;2.35;;;25.50;52.10;;;;;;5045543;28;20088;-59
2021/09/10 00:49:34;;;;;;;3.65;2.25;;;25.50;52.00;;;;;;5048726;28;20532;-54
2021/09/10 00:52:01;;;;;;;3.38;2.30;;;25.50;52.00;;;;;;5041276;28;20161;-59
2021/09/10 00:54:26;;;;;;;3.25;2.40;;;25.50;52.00;;;;;;5036575;28;20453;-58
2021/09/10 00:56:52;;;;;;;2.67;2.10;;;25.50;52.00;;;;;;5042999;28;20035;-59
2021/09/10 00:59:18;;;;;;;3.22;2.42;;;25.50;52.00;;;;;;5038837;28;20131;-55
2021/09/10 01:01:44;;;;;;;2.95;2.30;;;25.50;52.00;;;;;;5049167;28;20550;-52
2021/09/10 01:04:10;;;;;;;2.80;2.10;;;25.50;52.00;;;;;;5048120;28;20055;-59
2021/09/10 01:06:36;;;;;;;3.10;2.10;;;25.50;52.00;;;;;;5032448;28;20132;-61
2021/09/10 01:09:02;;;;;;;3.17;2.40;;;25.50;52.10;;;;;;5030433;28;20087;-59
2021/09/10 01:11:29;;;;;;;3.58;2.58;;;25.50;52.00;;;;;;5034896;28;20427;-58
2021/09/10 01:13:55;;;;;;;3.30;2.25;;;25.40;52.00;;;;;;5048044;28;20043;-58
2021/09/10 01:16:22;;;;;;;3.30;2.35;;;25.50;52.10;;;;;;5038860;28;20033;-54
2021/09/10 01:18:48;;;;;;;3.05;2.40;;;25.40;52.00;;;;;;5033837;28;20413;-52
2021/09/10 01:21:14;;;;;;;3.10;2.35;;;25.40;52.00;;;;;;5037654;28;20045;-52
2021/09/10 01:23:40;;;;;;;3.17;2.35;;;25.40;52.00;;;;;;5037186;28;20061;-54
2021/09/10 01:26:05;;;;;;;3.13;2.05;;;25.40;52.00;;;;;;5046180;28;20086;-53
2021/09/10 01:28:31;;;;;;;2.90;2.30;;;25.40;52.00;;;;;;5040642;28;20355;-54
2021/09/10 01:30:57;;;;;;;3.15;2.33;;;25.40;52.00;;;;;;5043593;28;20131;-52
2021/09/10 01:33:23;;;;;;;3.20;2.28;;;25.40;52.00;;;;;;5040300;28;20061;-59
2021/09/10 01:35:48;;;;;;;2.85;2.17;;;25.40;52.00;;;;;;5041475;28;20099;-49
2021/09/10 01:38:14;;;;;;;2.88;2.08;;;25.40;52.00;;;;;;5042589;28;20030;-53
2021/09/10 01:40:41;;;;;;;3.50;2.38;;;25.40;52.00;;;;;;5046679;28;20021;-58
2021/09/10 01:43:07;;;;;;;3.42;2.22;;;25.40;52.00;;;;;;5034100;28;20037;-55
2021/09/10 01:45:33;;;;;;;3.50;2.40;;;25.40;52.00;;;;;;5035220;28;20477;-55
2021/09/10 01:47:59;;;;;;;3.42;2.72;;;25.40;52.00;;;;;;5043556;28;20029;-58
2021/09/10 01:50:25;;;;;;;3.00;2.20;;;25.40;52.00;;;;;;5035507;28;20039;-53
2021/09/10 01:52:52;;;;;;;3.05;2.10;;;25.40;52.00;;;;;;5044797;28;20024;-58
2021/09/10 01:55:18;;;;;;;2.70;2.20;;;25.40;52.00;;;;;;5031897;28;20098;-55
2021/09/10 01:57:47;;;;;;;3.15;2.33;;;25.40;52.00;;;;;;5036762;28;20350;-61
2021/09/10 02:00:14;;;;;;;2.93;2.40;;;25.40;52.00;;;;;;5038742;28;20137;-48
2021/09/10 02:02:40;;;;;;;2.78;2.15;;;25.30;52.00;;;;;;5028995;28;20489;-54
2021/09/10 02:05:07;;;;;;;2.60;2.13;;;25.40;52.00;;;;;;5043731;28;20024;-58
2021/09/10 02:07:32;;;;;;;3.20;2.15;;;25.40;52.00;;;;;;5043293;28;20100;-60
2021/09/10 02:09:58;;;;;;;2.92;2.28;;;25.40;52.00;;;;;;5047197;28;20112;-61
2021/09/10 02:12:23;;;;;;;3.20;2.38;;;25.40;52.00;;;;;;5047153;28;20067;-60
2021/09/10 02:14:49;;;;;;;3.20;2.28;;;25.40;52.00;;;;;;5046865;28;20170;-50
2021/09/10 02:17:15;;;;;;;2.72;2.20;;;25.30;52.00;;;;;;5036030;28;20028;-53
2021/09/10 02:19:40;;;;;;;3.13;2.10;;;25.30;52.00;;;;;;5046189;28;20037;-60
2021/09/10 02:22:06;;;;;;;3.10;2.45;;;25.30;52.00;;;;;;5043228;28;20033;-52
2021/09/10 02:24:32;;;;;;;2.65;2.03;;;25.30;52.00;;;;;;5040574;28;20036;-57
2021/09/10 02:26:58;;;;;;;3.15;2.30;;;25.30;52.00;;;;;;5038454;28;20025;-58
2021/09/10 02:29:23;;;;;;;3.05;2.42;;;25.30;52.00;;;;;;5036093;28;20068;-58
2021/09/10 02:31:49;;;;;;;3.08;2.30;;;25.30;52.00;;;;;;5048358;28;20044;-57
2021/09/10 02:34:14;;;;;;;3.05;2.17;;;25.30;52.00;;;;;;5045148;28;20071;-58
2021/09/10 02:36:40;;;;;;;2.88;2.17;;;25.30;52.00;;;;;;5053238;28;20096;-57
2021/09/10 02:39:08;;;;;;;3.00;2.10;;;25.30;52.00;;;;;;5042241;28;20335;-50
2021/09/10 02:41:35;;;;;;;3.10;2.30;;;25.30;52.00;;;;;;5042860;28;20029;-59
2021/09/10 02:44:03;;;;;;;2.95;2.20;;;25.30;52.00;;;;;;5044557;28;20334;-58
2021/09/10 02:46:28;;;;;;;3.00;2.40;;;25.30;52.00;;;;;;5044321;28;20025;-53
2021/09/10 02:48:54;;;;;;;2.75;2.05;;;25.30;52.00;;;;;;5053712;28;20160;-54
2021/09/10 02:51:19;;;;;;;3.15;2.38;;;25.30;52.00;;;;;;5032109;28;20025;-60
2021/09/10 02:53:45;;;;;;;2.80;2.13;;;25.30;52.00;;;;;;5028241;28;20041;-54
2021/09/10 02:56:11;;;;;;;3.10;2.17;;;25.20;51.90;;;;;;5035523;28;20071;-58
2021/09/10 02:58:36;;;;;;;2.97;2.28;;;25.20;52.00;;;;;;5040046;28;20484;-54
2021/09/10 03:01:02;;;;;;;2.92;2.03;;;25.20;51.90;;;;;;5035782;28;20060;-52
2021/09/10 03:03:29;;;;;;;2.85;2.25;;;25.20;52.00;;;;;;5027898;28;20620;-55
2021/09/10 03:05:55;;;;;;;2.97;2.10;;;25.20;51.90;;;;;;5030457;28;20040;-53
2021/09/10 03:08:21;;;;;;;2.90;2.10;;;25.20;51.90;;;;;;5048741;28;20083;-54
2021/09/10 03:10:47;;;;;;;2.65;2.10;;;25.20;52.40;;;;;;5042246;28;20042;-61
2021/09/10 03:13:13;;;;;;;2.60;2.10;;;25.20;51.90;;;;;;5033430;28;20099;-55
2021/09/10 03:15:38;;;;;;;2.90;2.10;;;25.20;51.90;;;;;;5044501;28;20031;-58
2021/09/10 03:18:04;;;;;;;2.70;2.15;;;25.20;51.90;;;;;;5040400;28;20025;-54
2021/09/10 03:20:30;;;;;;;3.20;2.30;;;25.20;51.90;;;;;;5042758;28;20040;-53
2021/09/10 03:22:56;;;;;;;3.35;2.10;;;25.20;51.90;;;;;;5043180;28;20017;-60
2021/09/10 03:25:21;;;;;;;2.55;2.00;;;25.20;51.90;;;;;;5032217;28;20116;-51
2021/09/10 03:27:47;;;;;;;2.70;2.30;;;25.20;51.90;;;;;;5034233;28;20491;-58
2021/09/10 03:30:13;;;;;;;2.80;2.10;;;25.20;51.90;;;;;;5041428;28;20033;-51
2021/09/10 03:32:40;;;;;;;3.17;2.40;;;25.20;51.90;;;;;;5040871;28;20388;-60
2021/09/10 03:35:06;;;;;;;2.70;2.28;;;25.20;52.00;;;;;;5045149;28;20173;-59
2021/09/10 03:37:31;;;;;;;2.67;2.00;;;25.10;51.90;;;;;;5046174;28;20099;-58
2021/09/10 03:39:57;;;;;;;3.08;2.10;;;25.10;51.90;;;;;;5046301;28;20124;-50
2021/09/10 03:42:23;;;;;;;2.92;2.20;;;25.10;51.90;;;;;;5039480;28;20029;-54
2021/09/10 03:44:48;;;;;;;2.50;2.03;;;25.10;51.90;;;;;;5027783;28;20025;-58
2021/09/10 03:47:14;;;;;;;3.05;2.30;;;25.10;51.90;;;;;;5042158;28;20074;-59
2021/09/10 03:49:39;;;;;;;2.92;2.00;;;25.10;51.90;;;;;;5045392;28;20029;-57
2021/09/10 03:52:05;;;;;;;2.80;2.20;;;25.10;51.90;;;;;;5040981;28;20033;-53
2021/09/10 03:54:31;;;;;;;3.13;2.05;;;25.10;52.00;;;;;;5029565;28;20033;-54
2021/09/10 03:56:57;;;;;;;3.28;2.10;;;25.10;51.90;;;;;;5044647;28;20116;-61
2021/09/10 03:59:23;;;;;;;2.58;2.13;;;25.10;51.90;;;;;;5048789;28;20036;-55
2021/09/10 04:01:49;;;;;;;2.95;2.15;;;25.10;51.90;;;;;;5046617;28;20063;-53
2021/09/10 04:04:15;;;;;;;2.70;2.28;;;25.10;51.90;;;;;;5046411;28;20381;-56
2021/09/10 04:06:41;;;;;;;2.63;2.00;;;25.10;51.90;;;;;;5033859;28;20026;-59
2021/09/10 04:09:06;;;;;;;2.63;2.00;;;25.00;51.90;;;;;;5049977;28;20040;-52
2021/09/10 04:11:32;;;;;;;3.03;2.10;;;25.10;52.00;;;;;;5040596;28;20449;-56
2021/09/10 04:13:57;;;;;;;3.30;2.10;;;25.10;52.00;;;;;;5041500;28;20037;-53
2021/09/10 04:16:23;;;;;;;2.40;1.98;;;25.10;52.00;;;;;;5032479;28;20498;-55
2021/09/10 04:18:49;;;;;;;2.53;2.10;;;25.10;52.00;;;;;;5045770;28;20035;-55
2021/09/10 04:21:14;;;;;;;2.97;2.13;;;25.10;52.00;;;;;;5031831;28;20127;-58
2021/09/10 04:23:40;;;;;;;2.50;1.90;;;25.00;51.90;;;;;;5039691;28;20030;-50
2021/09/10 04:26:05;;;;;;;3.05;2.00;;;25.00;51.90;;;;;;5041340;28;20558;-58
2021/09/10 04:28:31;;;;;;;3.28;2.47;;;25.00;52.00;;;;;;5042830;28;20429;-58
2021/09/10 04:30:57;;;;;;;2.60;1.95;;;25.00;52.00;;;;;;5045474;28;20046;-59
2021/09/10 04:33:22;;;;;;;2.72;2.20;;;25.00;52.00;;;;;;5039717;28;20024;-50
2021/09/10 04:35:48;;;;;;;3.00;2.30;;;25.00;52.40;;;;;;5042682;28;20036;-61
2021/09/10 04:38:15;;;;;;;2.60;2.10;;;25.00;52.00;;;;;;5043269;28;20130;-53
2021/09/10 04:40:41;;;;;;;2.67;2.20;;;25.00;51.90;;;;;;5053998;28;20025;-55
2021/09/10 04:43:07;;;;;;;2.63;2.10;;;25.00;51.90;;;;;;5042712;28;20584;-58
2021/09/10 04:45:32;;;;;;;2.83;2.30;;;25.00;52.00;;;;;;5040270;28;20116;-55
2021/09/10 04:47:58;;;;;;;2.70;1.90;;;25.00;52.00;;;;;;5044544;28;20032;-56
2021/09/10 04:50:24;;;;;;;2.70;2.00;;;25.00;52.00;;;;;;5052814;28;20036;-53
2021/09/10 04:52:49;;;;;;;2.88;2.00;;;25.00;52.00;;;;;;5042795;28;20029;-61
2021/09/10 04:55:16;;;;;;;2.58;2.08;;;25.00;52.00;;;;;;5030766;28;20405;-59
2021/09/10 04:57:42;;;;;;;2.70;1.80;;;25.00;52.00;;;;;;5029832;28;20037;-58
2021/09/10 05:00:08;;;;;;;2.55;1.80;;;24.90;52.00;;;;;;5050484;28;20025;-60
2021/09/10 05:02:36;;;;;;;3.10;1.83;;;25.00;52.00;;;;;;5048762;28;20117;-60
2021/09/10 05:05:02;;;;;;;2.30;1.98;;;24.90;51.90;;;;;;5033403;28;20689;-56
2021/09/10 05:07:28;;;;;;;2.80;2.17;;;24.90;51.90;;;;;;5042156;28;20078;-51
2021/09/10 05:09:54;;;;;;;2.70;2.08;;;24.90;52.00;;;;;;5037287;28;20032;-53
2021/09/10 05:12:20;;;;;;;2.53;1.90;;;24.90;52.00;;;;;;5051861;28;20029;-57
2021/09/10 05:14:45;;;;;;;2.80;1.90;;;24.90;52.00;;;;;;5036924;28;20079;-58
2021/09/10 05:17:11;;;;;;;2.60;2.00;;;24.90;52.00;;;;;;5037455;28;20028;-59
2021/09/10 05:19:37;;;;;;;2.78;2.00;;;24.90;52.00;;;;;;5046177;28;20110;-57
2021/09/10 05:22:03;;;;;;;3.45;2.20;;;24.90;52.00;;;;;;5034372;28;20048;-57
2021/09/10 05:24:28;;;;;;;2.53;2.10;;;24.90;52.00;;;;;;5040587;28;20025;-56
2021/09/10 05:26:55;;;;;;;2.67;2.03;;;24.90;52.00;;;;;;5034577;28;20101;-58
2021/09/10 05:29:21;;;;;;;2.90;2.22;;;24.90;52.00;;;;;;5034388;28;20036;-60
2021/09/10 05:31:46;;;;;;;3.17;2.10;;;24.90;52.00;;;;;;5054181;28;20581;-53
2021/09/10 05:34:12;;;;;;;2.63;2.00;;;24.80;51.90;;;;;;5042870;28;20049;-57
2021/09/10 05:36:38;;;;;;;2.38;2.00;;;24.80;51.90;;;;;;5045147;28;20029;-53
2021/09/10 05:39:04;;;;;;;2.83;1.98;;;24.90;52.00;;;;;;5053671;28;20041;-61
2021/09/10 05:41:30;;;;;;;2.50;2.10;;;24.80;52.40;;;;;;5045635;28;20028;-59
2021/09/10 05:43:56;;;;;;;2.40;2.00;;;24.80;51.90;;;;;;5042949;28;20044;-56
2021/09/10 05:46:21;;;;;;;2.67;2.10;;;24.90;52.00;;;;;;5047882;28;20025;-60
2021/09/10 05:48:47;;;;;;;2.78;2.10;;;24.80;52.00;;;;;;5029155;28;20033;-56
2021/09/10 05:51:13;;;;;;;2.38;2.10;;;24.80;52.00;;;;;;5042015;28;20044;-49
2021/09/10 05:53:39;;;;;;;2.63;2.28;;;24.80;51.90;;;;;;5056706;28;20032;-60
2021/09/10 05:56:05;;;;;;;2.40;2.00;;;24.80;52.00;;;;;;5049656;28;20167;-52
2021/09/10 05:58:31;;;;;;;2.90;1.90;;;24.80;51.90;;;;;;5033038;28;20056;-60
2021/09/10 06:00:57;;;;;;;2.72;2.10;;;24.80;51.90;;;;;;5050192;28;20614;-53
2021/09/10 06:03:22;;;;;;;2.67;2.10;;;24.80;51.90;;;;;;5031730;28;20033;-61
2021/09/10 06:05:48;;;;;;;2.40;2.00;;;24.80;52.00;;;;;;5044789;28;20090;-58
2021/09/10 06:08:19;;;;;;;2.47;2.08;;;24.80;51.90;;;;;;5035969;28;20111;-54
2021/09/10 06:10:46;;;;;;;3.00;2.30;;;24.80;51.90;;;;;;5053919;28;20472;-57
2021/09/10 06:13:12;;;;;;;2.53;1.80;;;24.80;51.90;;;;;;5061540;28;20032;-59
2021/09/10 06:15:38;;;;;;;2.90;2.30;;;24.80;51.90;;;;;;5035813;28;20040;-52
2021/09/10 06:18:03;;;;;;;2.60;1.95;;;24.80;52.50;;;;;;5032273;28;20116;-58
2021/09/10 06:20:29;;;;;;;2.72;2.00;;;24.80;52.00;;;;;;5040304;28;20496;-59
2021/09/10 06:22:55;;;;;;;2.85;2.05;;;24.80;52.00;;;;;;5030944;28;20029;-59
2021/09/10 06:25:20;;;;;;;2.60;2.00;;;24.80;52.00;;;;;;5047300;28;20684;-54
2021/09/10 06:27:46;;;;;;;2.25;1.80;;;24.80;52.00;;;;;;5045265;28;20025;-55
2021/09/10 06:30:12;;;;;;;2.75;2.00;;;24.80;52.00;;;;;;5040222;28;20477;-59
2021/09/10 06:32:37;;;;;;;2.85;2.13;;;24.80;52.00;;;;;;5044595;28;20094;-59
2021/09/10 06:35:04;;;;;;;2.63;2.00;;;24.80;52.00;;;;;;5037607;28;20068;-49
2021/09/10 06:37:29;;;;;;;2.72;2.05;;;24.80;52.00;;;;;;5041016;28;20061;-58
2021/09/10 06:39:55;;;;;;;2.38;1.92;;;24.70;52.00;;;;;;5035391;28;20130;-58
2021/09/10 06:42:21;;;;;;;3.08;2.10;;;24.70;52.00;;;;;;5050807;28;20027;-57
2021/09/10 06:44:47;;;;;;;2.38;1.98;;;24.70;52.00;;;;;;5033752;28;20025;-57
2021/09/10 06:47:13;;;;;;;2.80;1.98;;;24.70;52.10;;;;;;5044200;28;20384;-50
2021/09/10 06:49:38;;;;;;;3.25;2.10;;;24.70;52.10;;;;;;5039280;28;20025;-54
2021/09/10 06:52:04;;;;;;;3.05;2.20;;;24.70;52.10;;;;;;5046312;28;20560;-56
2021/09/10 06:54:30;;;;;;;2.70;2.20;;;24.70;52.10;;;;;;5041851;28;20028;-60
2021/09/10 06:56:55;;;;;;;2.70;2.15;;;24.70;52.10;;;;;;5041395;28;20028;-60
2021/09/10 06:59:21;;;;;;;3.13;2.35;;;24.70;52.10;;;;;;5035512;28;20574;-58
2021/09/10 07:01:47;;;;;;;3.15;2.30;;;24.70;52.10;;;;;;5037858;28;20032;-53
2021/09/10 07:04:13;;;;;;;2.53;2.13;;;24.70;52.10;;;;;;5046599;28;20086;-57
2021/09/10 07:06:38;;;;;;;2.80;2.22;;;24.70;52.10;;;;;;5045438;28;20025;-57
2021/09/10 07:09:04;;;;;;;4.13;2.55;;;24.70;52.60;;;;;;5047277;28;20227;-59
2021/09/10 07:11:32;;;;;;;2.63;2.10;;;24.70;52.10;;;;;;5037812;28;20104;-59
2021/09/10 07:13:59;;;;;;;2.85;2.10;;;24.70;52.10;;;;;;5044309;28;20028;-53
2021/09/10 07:16:24;;;;;;;2.63;2.20;;;24.70;52.60;;;;;;5034070;28;20033;-59
2021/09/10 07:18:50;;;;;;;2.90;2.22;;;24.70;52.70;;;;;;5046533;28;20025;-53
2021/09/10 07:21:16;;;;;;;2.85;2.30;;;24.70;52.10;;;;;;5029423;28;20442;-57
2021/09/10 07:23:43;;;;;;;2.70;2.30;;;24.70;52.10;;;;;;5036518;28;20021;-55
2021/09/10 07:26:09;;;;;;;3.03;2.22;;;24.70;52.10;;;;;;5027778;28;20116;-59
2021/09/10 07:28:35;;;;;;;2.70;2.13;;;24.70;52.10;;;;;;5026832;28;20104;-59
2021/09/10 07:31:02;;;;;;;2.90;2.25;;;24.70;52.10;;;;;;5029022;28;20053;-51
2021/09/10 07:33:28;;;;;;;3.33;2.38;;;24.70;52.10;;;;;;5037554;28;20036;-53
2021/09/10 07:35:54;;;;;;;2.65;2.10;;;24.60;52.00;;;;;;5031277;28;20045;-58
2021/09/10 07:38:20;;;;;;;2.88;2.30;;;24.70;52.10;;;;;;5027396;28;20112;-52
2021/09/10 07:40:47;;;;;;;2.97;2.33;;;24.60;52.00;;;;;;5040437;28;20111;-52
2021/09/10 07:43:13;;;;;;;3.00;2.35;;;24.70;52.10;;;;;;5044933;28;20033;-57
2021/09/10 07:45:38;;;;;;;3.10;2.50;;;24.60;52.10;;;;;;5048027;28;20477;-60
2021/09/10 07:48:05;;;;;;;4.07;2.20;;;24.60;52.10;;;;;;5049222;28;20025;-55
2021/09/10 07:50:30;;;;;;;2.83;2.30;;;24.60;52.10;;;;;;5046720;28;20051;-54
2021/09/10 07:52:56;;;;;;;3.50;2.40;;;24.60;52.10;;;;;;5036584;28;20036;-49
2021/09/10 07:55:21;;;;;;;2.72;2.20;;;24.60;52.10;;;;;;5042831;28;20029;-48
2021/09/10 07:57:47;;;;;;;3.38;2.50;;;24.60;52.10;;;;;;5042008;28;20040;-59
2021/09/10 08:00:17;;;;;;;3.08;2.30;;;24.60;52.10;;;;;;5050468;28;20057;-60
2021/09/10 08:02:42;;;;;;;2.80;2.30;;;24.60;52.10;;;;;;5051585;28;20029;-56
2021/09/10 08:05:08;;;;;;;2.70;2.20;;;24.60;52.10;;;;;;5042321;28;20377;-59
2021/09/10 08:07:34;;;;;;;3.15;2.50;;;24.60;52.10;;;;;;5047905;28;20122;-59
2021/09/10 08:10:00;;;;;;;3.00;2.28;;;24.70;52.20;;;;;;5048879;28;20028;-59
2021/09/10 08:12:26;;;;;;;2.85;2.35;;;24.60;52.10;;;;;;5045665;28;20098;-59
2021/09/10 08:14:52;;;;;;;3.30;2.17;;;24.70;52.20;;;;;;5047850;28;20591;-58
2021/09/10 08:17:18;;;;;;;3.08;2.35;;;24.60;52.10;;;;;;5051403;28;20111;-59
2021/09/10 08:19:45;;;;;;;3.10;2.28;;;24.60;52.20;;;;;;5048836;28;20051;-60
2021/09/10 08:22:10;;;;;;;3.10;2.35;;;24.60;52.20;;;;;;5048785;28;20146;-59
2021/09/10 08:24:36;;;;;;;3.08;2.20;;;24.60;52.20;;;;;;5042024;28;20132;-60
2021/09/10 08:27:01;;;;;;;3.25;2.40;;;24.60;52.20;;;;;;5042578;28;20345;-55
2021/09/10 08:29:27;;;;;;;3.00;2.20;;;24.60;52.20;;;;;;5046338;28;20568;-58
2021/09/10 08:31:53;;;;;;;2.75;2.22;;;24.70;52.30;;;;;;5045792;28;20033;-60
2021/09/10 08:34:18;;;;;;;3.10;2.38;;;24.70;52.30;;;;;;5037504;28;20043;-59
2021/09/10 08:36:44;;;;;;;3.58;2.33;;;24.60;52.20;;;;;;5048688;28;20100;-59
2021/09/10 08:39:10;;;;;;;4.15;2.28;;;24.60;52.30;;;;;;5037514;28;20030;-54
2021/09/10 08:41:38;;;;;;;3.17;2.25;;;24.60;52.30;;;;;;5039954;28;20132;-50
2021/09/10 08:44:05;;;;;;;3.72;2.47;;;24.60;52.30;;;;;;5047880;28;20043;-56
2021/09/10 08:46:34;;;;;;;3.10;2.40;;;24.60;52.20;;;;;;5053446;28;20024;-49
2021/09/10 08:49:01;;;;;;;;;;;24.60;52.20;;;;;;5042174;28;20079;-52
2021/09/10 08:51:26;;;;;;;2.97;2.42;;;24.70;52.30;;;;;;5044840;28;19908;-56
2021/09/10 08:53:52;;;;;;;3.40;2.53;;;24.60;52.30;;;;;;5048686;28;20024;-55
2021/09/10 08:56:17;;;;;;;3.05;2.40;;;24.70;52.30;;;;;;5049500;28;20129;-58
2021/09/10 08:58:43;;;;;;;3.30;2.63;;;24.60;52.30;;;;;;5044639;28;20060;-57
2021/09/10 09:01:09;;;;;;;3.00;2.30;;;24.60;52.30;;;;;;5048495;28;20035;-52
2021/09/10 09:03:35;;;;;;;3.90;2.50;;;24.60;52.30;;;;;;5036738;28;20486;-59
2021/09/10 09:06:01;;;;;;;2.92;2.42;;;24.60;52.30;;;;;;5047855;28;20037;-54
2021/09/10 09:08:27;;;;;;;3.05;2.47;;;24.70;52.40;;;;;;5035638;28;20037;-55
2021/09/10 09:11:11;;;;;;;2.92;2.30;;;24.60;52.30;;;;;;5049975;28;20033;-54
2021/09/10 09:13:45;;;;;;;3.50;2.63;;;24.60;52.30;;;;;;5052232;28;20032;-58
2021/09/10 09:16:15;;;;;;;3.17;2.53;;;24.60;52.30;;;;;;5050481;28;20030;-58
2021/09/10 09:18:42;;;;;;;3.40;2.72;;;24.60;52.30;;;;;;5047561;28;20120;-59
2021/09/10 09:21:07;;;;;;;3.40;2.70;;;24.60;52.30;;;;;;5042734;28;20045;-57
2021/09/10 09:23:33;;;;;;;3.08;2.50;;;24.60;52.30;;;;;;5058355;28;20536;-60
2021/09/10 09:25:59;;;;;;;3.10;2.28;;;24.60;52.30;;;;;;5030279;28;20036;-55
2021/09/10 09:28:32;;;;;;;3.30;2.60;;;24.60;52.30;;;;;;5034254;28;20063;-53
2021/09/10 09:31:04;;;;;;;4.13;2.55;;;24.60;52.30;;;;;;5037727;28;20040;-61
2021/09/10 09:33:40;;;;;;;3.17;2.45;;;24.60;52.30;;;;;;5031458;28;20047;-52
2021/09/10 09:36:10;;;;;;;2.92;2.25;;;24.60;52.30;;;;;;5030313;28;20041;-59
2021/09/10 09:38:39;;;;;;;3.20;2.38;;;24.60;52.30;;;;;;5042522;28;20048;-58
2021/09/10 09:41:06;;;;;;;3.40;2.50;;;24.60;52.30;;;;;;5041421;28;20465;-55
2021/09/10 09:43:41;;;;;;;3.00;2.30;;;24.70;52.40;;;;;;5046916;28;20068;-59
2021/09/10 09:46:12;;;;;;;3.03;2.55;;;24.60;52.30;;;;;;5044236;28;20048;-59
2021/09/10 09:48:39;;;;;;;3.30;2.63;;;24.60;52.30;;;;;;5040444;28;20037;-58
2021/09/10 09:51:06;;;;;;;3.38;2.65;;;24.70;52.30;;;;;;5042752;28;20040;-59
2021/09/10 09:53:34;;;;;;;3.25;2.47;;;24.60;52.30;;;;;;5029378;28;20029;-53
2021/09/10 09:56:01;;;;;;;3.05;2.38;;;24.60;52.30;;;;;;5031383;28;20029;-55
2021/09/10 09:58:29;;;;;;;2.92;2.40;;;24.60;52.40;;;;;;5035795;28;20025;-57
2021/09/10 10:00:56;;;;;;;3.20;2.47;;;24.70;52.40;;;;;;5029431;28;20026;-51
2021/09/10 10:03:22;;;;;;;3.45;2.80;;;24.70;52.40;;;;;;5028539;28;20027;-56
2021/09/10 10:06:02;;;;;;;3.30;2.70;;;24.70;52.40;;;;;;5027675;28;20531;-58
2021/09/10 10:09:07;;;;;;;3.15;2.47;;;24.70;52.40;;;;;;5032562;28;20091;-60
2021/09/10 10:11:50;;;;;;;4.40;2.63;;;24.70;52.40;;;;;;5029527;28;20482;-54
2021/09/10 10:14:37;;;;;;;3.38;2.70;;;24.70;52.30;;;;;;5029051;28;20385;-52
2021/09/10 10:17:03;;;;;;;3.35;2.50;;;24.70;52.40;;;;;;5043124;28;20033;-58
2021/09/10 10:19:37;;;;;;;3.13;2.55;;;24.70;52.40;;;;;;5047288;28;20322;-51
2021/09/10 10:22:05;;;;;;;3.15;2.55;;;24.70;52.40;;;;;;5046520;28;20744;-49
2021/09/10 10:24:56;;;;;;;3.10;2.30;;;24.70;52.40;;;;;;5039528;28;20112;-57
2021/09/10 10:27:34;;;;;;;3.90;2.95;;;24.70;52.40;;;;;;5043204;28;20040;-53
2021/09/10 10:30:02;;;;;;;4.55;2.47;;;24.70;52.40;;;;;;5030976;28;20041;-58
2021/09/10 10:32:39;;;;;;;3.40;2.70;;;24.70;52.30;;;;;;5027512;28;20045;-52
2021/09/10 10:35:17;;;;;;;3.50;2.75;;;24.70;52.40;;;;;;5044988;28;20041;-54
2021/09/10 10:37:48;;;;;;;3.40;2.70;;;24.70;52.40;;;;;;5046696;28;20036;-57
2021/09/10 10:40:24;;;;;;;3.40;2.63;;;24.70;52.30;;;;;;5042126;28;20021;-59
2021/09/10 10:42:53;;;;;;;3.17;2.53;;;24.70;52.40;;;;;;5047231;28;20047;-58
2021/09/10 10:45:42;;;;;;;3.55;2.70;;;24.70;52.40;;;;;;5041658;28;20062;-54
2021/09/10 10:48:29;;;;;;;3.60;2.60;;;24.70;52.30;;;;;;5026898;28;20248;-52
2021/09/10 10:50:56;;;;;;;3.20;2.50;;;24.70;52.30;;;;;;5027689;28;20557;-58
2021/09/10 10:53:21;;;;;;;2.88;2.38;;;24.70;52.40;;;;;;5034697;28;20037;-59
2021/09/10 10:55:47;;;;;;;3.20;2.67;;;24.70;52.40;;;;;;5042580;28;20060;-59
2021/09/10 10:58:22;;;;;;;2.97;2.50;;;24.70;52.30;;;;;;5034795;28;20036;-54
2021/09/10 11:00:51;;;;;;;4.00;2.80;;;24.70;52.30;;;;;;5045096;28;20175;-51
2021/09/10 11:03:21;;;;;;;3.33;2.53;;;24.70;52.30;;;;;;5029596;28;20092;-56
2021/09/10 11:05:49;;;;;;;3.13;2.53;;;24.70;52.30;;;;;;5036495;28;20033;-58
2021/09/10 11:08:42;;;;;;;3.20;2.60;;;24.80;52.40;;;;;;5027515;28;20029;-58
2021/09/10 11:11:09;;;;;;;2.97;2.40;;;24.80;52.40;;;;;;5029833;28;20378;-53
2021/09/10 11:13:40;;;;;;;3.47;2.70;;;24.80;52.30;;;;;;5041744;28;20457;-50
2021/09/10 11:16:09;;;;;;;3.85;2.63;;;24.80;52.30;;;;;;5033086;28;20040;-58
2021/09/10 11:18:36;;;;;;;4.20;2.60;;;24.80;52.90;;;;;;5035234;28;20215;-54
2021/09/10 11:21:07;;;;;;;3.90;2.58;;;24.80;52.40;;;;;;5045158;28;20370;-52
2021/09/10 11:23:36;;;;;;;3.13;2.53;;;24.80;52.30;;;;;;5036945;28;20457;-59
2021/09/10 11:26:03;;;;;;;3.40;2.53;;;24.80;52.30;;;;;;5040412;28;20021;-54
2021/09/10 11:28:33;;;;;;;3.10;2.55;;;24.80;52.30;;;;;;5046412;28;20033;-58
2021/09/10 11:30:59;;;;;;;3.08;2.58;;;24.80;52.30;;;;;;5044973;28;20056;-50
2021/09/10 11:33:24;;;;;;;2.90;2.47;;;24.80;52.30;;;;;;5047263;28;20025;-58
2021/09/10 11:35:52;;;;;;;3.70;2.90;;;24.80;52.30;;;;;;5032847;28;20033;-57
2021/09/10 11:38:21;;;;;;;3.03;2.50;;;24.80;52.30;;;;;;5035494;28;20582;-52
2021/09/10 11:40:49;;;;;;;2.75;2.20;;;24.80;52.30;;;;;;5039919;28;20594;-56
2021/09/10 11:43:26;;;;;;;3.00;2.60;;;24.80;52.30;;;;;;5045398;28;20114;-52
2021/09/10 11:45:53;;;;;;;4.10;2.53;;;24.80;52.30;;;;;;5028836;28;20044;-58
2021/09/10 11:48:34;;;;;;;3.15;2.38;;;24.80;52.30;;;;;;5046905;28;20044;-53
2021/09/10 11:51:03;;;;;;;3.75;2.60;;;24.80;52.30;;;;;;5039801;28;20103;-59
2021/09/10 11:53:34;;;;;;;;;;;24.80;52.30;;;;;;5027276;28;20040;-54
2021/09/10 11:56:07;;;;;;;3.05;2.30;;;24.80;52.30;;;;;;5035224;28;19951;-52
2021/09/10 11:58:53;;;;;;;3.38;2.30;;;24.80;52.30;;;;;;5039745;28;20429;-60
2021/09/10 12:01:21;;;;;;;2.70;2.30;;;24.80;52.30;;;;;;5033648;28;20033;-56
2021/09/10 12:03:48;;;;;;;2.92;2.38;;;24.80;52.30;;;;;;5030436;28;20025;-61
2021/09/10 12:06:23;;;;;;;3.30;2.45;;;24.80;52.30;;;;;;5045403;28;20032;-58
2021/09/10 12:09:21;;;;;;;3.03;2.42;;;24.80;52.30;;;;;;5043942;28;20027;-57
2021/09/10 12:12:17;;;;;;;2.45;2.15;;;24.80;52.30;;;;;;5028299;28;20488;-60
2021/09/10 12:15:10;;;;;;;3.25;2.40;;;24.90;52.40;;;;;;5026865;28;20497;-55
2021/09/10 12:17:37;;;;;;;2.83;2.30;;;24.80;52.30;;;;;;5040453;28;20060;-54
2021/09/10 12:20:08;;;;;;;2.88;2.38;;;24.90;52.40;;;;;;5046393;28;20630;-60
2021/09/10 12:22:35;;;;;;;3.00;2.30;;;24.90;52.40;;;;;;5053433;28;20060;-59
2021/09/10 12:25:26;;;;;;;4.07;2.30;;;24.90;52.40;;;;;;5037625;28;20044;-54
2021/09/10 12:28:07;;;;;;;3.15;2.40;;;24.90;52.40;;;;;;5032950;28;20048;-56
2021/09/10 12:30:39;;;;;;;3.10;2.38;;;24.90;52.40;;;;;;5031100;28;20454;-49
2021/09/10 12:33:06;;;;;;;3.22;2.22;;;24.90;52.30;;;;;;5032244;28;20484;-57
2021/09/10 12:35:33;;;;;;;2.70;2.30;;;24.90;52.30;;;;;;5030900;28;20846;-55
2021/09/10 12:38:00;;;;;;;2.70;2.25;;;24.90;52.40;;;;;;5039530;28;20052;-55
2021/09/10 12:40:26;;;;;;;2.70;2.30;;;24.90;52.30;;;;;;5046808;28;20029;-53
2021/09/10 12:42:52;;;;;;;2.63;2.15;;;24.90;52.30;;;;;;5055963;28;20032;-60
2021/09/10 12:45:18;;;;;;;2.80;2.25;;;24.90;52.40;;;;;;5045240;28;20088;-55
2021/09/10 12:47:44;;;;;;;2.60;2.10;;;24.90;52.30;;;;;;5036406;28;20489;-60
2021/09/10 12:50:10;;;;;;;2.80;2.08;;;24.90;52.30;;;;;;5033050;28;20057;-55